createdAt,value
2023-03-08T11:20:21.817Z,16.20
2023-03-08T11:23:02.836Z,16.00
2023-03-08T11:25:40.487Z,15.60
2023-03-08T11:28:23.408Z,15.40
2023-03-08T11:31:02.289Z,15.90
2023-03-08T11:33:47.213Z,15.70
2023-03-08T11:36:40.217Z,15.70
2023-03-08T11:39:19.899Z,15.70
2023-03-08T11:41:56.415Z,15.70
2023-03-08T11:45:01.904Z,15.90
2023-03-08T11:48:05.000Z,16.20
2023-03-08T11:50:38.412Z,15.90
2023-03-08T11:53:19.303Z,16.10
2023-03-08T11:56:19.270Z,16.70
2023-03-08T11:58:52.850Z,17.60
2023-03-08T12:01:25.101Z,17.70
2023-03-08T12:04:14.759Z,17.90
2023-03-08T12:06:45.363Z,17.90
2023-03-08T12:09:24.150Z,17.70
2023-03-08T12:12:00.919Z,16.80
2023-03-08T12:14:33.662Z,17.40
2023-03-08T12:17:10.750Z,18.30
2023-03-08T12:19:44.261Z,18.70
2023-03-08T12:22:45.176Z,18.70
2023-03-08T12:25:35.410Z,18.60
2023-03-08T12:28:13.958Z,19.10
2023-03-08T12:30:56.465Z,18.80
2023-03-08T12:33:27.869Z,17.50
2023-03-08T12:35:58.789Z,17.60
2023-03-08T12:38:52.030Z,17.40
2023-03-08T12:41:27.272Z,17.80
2023-03-08T12:44:43.824Z,18.20
2023-03-08T12:47:23.186Z,19.00
2023-03-08T12:52:44.198Z,16.70
2023-03-08T12:55:21.803Z,16.30
2023-03-08T12:57:55.570Z,17.10
2023-03-08T13:00:43.868Z,17.60
2023-03-08T13:03:30.197Z,17.90
2023-03-08T13:05:59.465Z,17.10
2023-03-08T13:08:35.691Z,16.70
2023-03-08T13:19:22.820Z,18.90
2023-03-08T13:22:12.996Z,17.90
2023-03-08T13:24:48.867Z,17.60
2023-03-08T13:27:30.457Z,16.30
2023-03-08T13:30:17.434Z,16.10
2023-03-08T13:33:04.116Z,15.70
2023-03-08T13:35:33.119Z,15.30
2023-03-08T13:38:02.392Z,15.50
2023-03-08T13:43:18.707Z,15.70
2023-03-08T13:48:55.237Z,16.80
2023-03-08T13:51:27.729Z,16.40
2023-03-08T13:53:57.244Z,16.40
2023-03-08T13:56:28.490Z,16.40
2023-03-08T13:59:00.658Z,17.60
2023-03-08T14:01:32.164Z,18.80
2023-03-08T14:04:01.513Z,18.20
2023-03-08T14:07:11.718Z,17.70
2023-03-08T14:10:01.219Z,17.40
2023-03-08T14:12:48.685Z,18.30
2023-03-08T14:15:20.164Z,19.10
2023-03-08T14:17:51.513Z,19.30
2023-03-08T14:20:23.291Z,18.70
2023-03-08T14:25:42.684Z,17.50
2023-03-08T14:28:35.969Z,17.00
2023-03-08T14:31:28.002Z,17.10
2023-03-08T14:34:18.107Z,16.90
2023-03-08T14:36:53.876Z,16.70
2023-03-08T14:39:24.786Z,16.80
2023-03-08T14:42:12.323Z,16.40
2023-03-08T14:44:41.393Z,16.20
2023-03-08T14:47:12.269Z,16.30
2023-03-08T14:49:42.802Z,16.10
2023-03-08T14:52:30.957Z,15.80
2023-03-08T14:55:18.535Z,15.80
2023-03-08T14:57:47.707Z,15.90
2023-03-08T15:00:18.763Z,15.80
2023-03-08T15:02:47.754Z,15.90
2023-03-08T15:05:38.241Z,15.70
2023-03-08T15:08:29.411Z,15.60
2023-03-08T15:10:58.464Z,15.60
2023-03-08T15:13:46.342Z,15.70
2023-03-08T15:16:15.412Z,15.80
2023-03-08T15:18:44.873Z,15.70
2023-03-08T15:21:21.067Z,15.60
2023-03-08T15:23:50.358Z,15.40
2023-03-08T15:26:25.519Z,15.40
2023-03-08T15:28:54.469Z,15.40
2023-03-08T15:31:23.555Z,15.50
2023-03-08T15:33:52.671Z,15.50
2023-03-08T15:36:23.070Z,15.50
2023-03-08T15:38:52.056Z,15.50
2023-03-08T15:41:21.075Z,15.40
2023-03-08T15:46:36.827Z,15.20
2023-03-08T15:49:06.133Z,15.40
2023-03-08T15:54:59.076Z,14.70
2023-03-08T15:57:28.144Z,14.50
2023-03-08T15:59:57.131Z,14.40
2023-03-08T16:02:26.166Z,14.60
2023-03-08T16:05:31.233Z,14.30
2023-03-08T16:08:03.351Z,14.40
2023-03-08T16:10:52.434Z,14.20
2023-03-08T16:13:22.238Z,14.20
2023-03-08T16:15:51.239Z,14.30
2023-03-08T16:18:20.304Z,14.30
2023-03-08T16:23:36.952Z,14.10
2023-03-08T16:26:15.169Z,14.00
2023-03-08T16:28:47.311Z,14.00
2023-03-08T16:31:21.391Z,14.00
2023-03-08T16:33:50.536Z,14.00
2023-03-08T16:36:37.417Z,13.90
2023-03-08T16:41:54.836Z,14.00
2023-03-08T16:44:25.964Z,13.90
2023-03-08T16:47:12.557Z,14.00
2023-03-08T16:49:41.769Z,13.90
2023-03-08T16:52:10.671Z,13.90
2023-03-08T16:54:41.051Z,13.80
2023-03-08T16:57:19.187Z,13.90
2023-03-08T17:00:06.327Z,14.00
2023-03-08T17:02:35.401Z,14.00
2023-03-08T17:05:05.072Z,13.90
2023-03-08T17:07:34.072Z,13.90
2023-03-08T17:10:22.967Z,13.80
2023-03-08T17:12:52.049Z,13.80
2023-03-08T17:15:20.963Z,13.80
2023-03-08T17:17:50.035Z,13.80
2023-03-08T17:20:37.191Z,13.80
2023-03-08T17:23:07.185Z,13.60
2023-03-08T17:25:40.909Z,13.50
2023-03-08T17:28:10.940Z,13.40
2023-03-08T17:30:41.593Z,13.20
2023-03-08T17:33:12.933Z,13.20
2023-03-08T17:35:43.208Z,13.30
2023-03-08T17:38:12.157Z,13.40
2023-03-08T17:41:01.128Z,13.30
2023-03-08T17:43:30.064Z,13.40
2023-03-08T17:46:00.006Z,13.50
2023-03-08T17:49:06.201Z,13.40
2023-03-08T17:51:39.807Z,13.20
2023-03-08T17:56:41.211Z,13.10
2023-03-08T17:59:14.390Z,13.30
2023-03-08T18:02:02.022Z,13.30
2023-03-08T18:04:31.291Z,13.50
2023-03-08T18:07:17.556Z,13.30
2023-03-08T18:09:47.712Z,13.30
2023-03-08T18:12:18.395Z,13.10
2023-03-08T18:14:50.702Z,13.10
2023-03-08T18:17:20.399Z,13.20
2023-03-08T18:19:49.725Z,13.10
2023-03-08T18:22:18.751Z,13.20
2023-03-08T18:24:47.793Z,13.10
2023-03-08T18:27:18.264Z,13.10
2023-03-08T18:29:47.333Z,13.10
2023-03-08T18:35:02.895Z,13.20
2023-03-08T18:40:37.386Z,13.40
2023-03-08T18:43:09.249Z,13.30
2023-03-08T18:45:38.347Z,13.30
2023-03-08T18:48:07.339Z,13.30
2023-03-08T18:54:00.962Z,13.00
2023-03-08T18:56:30.852Z,12.90
2023-03-08T18:59:03.014Z,13.00
2023-03-08T19:04:19.518Z,13.00
2023-03-08T19:06:48.611Z,12.90
2023-03-08T19:09:18.803Z,12.90
2023-03-08T19:11:48.713Z,12.80
2023-03-08T19:14:19.597Z,12.90
2023-03-08T19:16:48.599Z,12.90
2023-03-08T19:22:22.198Z,12.90
2023-03-08T19:24:51.097Z,12.90
2023-03-08T19:27:20.168Z,12.80
2023-03-08T19:32:55.193Z,12.90
2023-03-08T19:35:24.370Z,12.70
2023-03-08T19:37:53.550Z,12.70
2023-03-08T19:40:22.684Z,12.70
2023-03-08T19:43:10.304Z,12.70
2023-03-08T19:45:49.105Z,12.80
2023-03-08T19:48:18.601Z,12.80
2023-03-08T19:50:48.878Z,12.70
2023-03-08T19:53:17.879Z,12.90
2023-03-08T19:55:51.550Z,12.60
2023-03-08T19:58:21.506Z,12.80
2023-03-08T20:00:51.974Z,12.90
2023-03-08T20:03:21.326Z,12.90
2023-03-08T20:05:50.426Z,12.90
2023-03-08T20:08:38.708Z,12.90
2023-03-08T20:11:26.027Z,12.90
2023-03-08T20:13:55.234Z,12.80
2023-03-08T20:16:26.237Z,12.80
2023-03-08T20:18:56.231Z,12.80
2023-03-08T20:21:28.194Z,12.70
2023-03-08T20:24:18.470Z,12.60
2023-03-08T20:26:47.874Z,12.60
2023-03-08T20:29:17.978Z,12.90
2023-03-08T20:31:50.171Z,12.90
2023-03-08T20:34:19.661Z,12.70
2023-03-08T20:36:49.382Z,12.70
2023-03-08T20:39:18.567Z,12.80
2023-03-08T20:41:47.661Z,12.90
2023-03-08T20:44:18.774Z,13.00
2023-03-08T20:47:08.104Z,13.00
2023-03-08T20:49:37.081Z,13.00
2023-03-08T20:54:53.256Z,12.80
2023-03-08T20:57:40.566Z,12.80
2023-03-08T21:00:30.957Z,12.90
2023-03-08T21:03:01.599Z,12.80
2023-03-08T21:05:34.652Z,12.90
2023-03-08T21:08:03.956Z,12.80
2023-03-08T21:10:53.569Z,12.50
2023-03-08T21:13:22.814Z,12.50
2023-03-08T21:18:49.806Z,12.30
2023-03-08T21:24:16.044Z,12.40
2023-03-08T21:26:45.578Z,12.50
2023-03-08T21:31:48.442Z,12.60
2023-03-08T21:34:20.168Z,12.50
2023-03-08T21:39:37.679Z,12.40
2023-03-08T21:42:07.892Z,12.30
2023-03-08T21:44:55.200Z,12.30
2023-03-08T21:47:24.260Z,12.10
2023-03-08T21:49:54.833Z,12.10
2023-03-08T21:55:11.654Z,12.10
2023-03-08T21:57:41.875Z,12.00
2023-03-08T22:00:29.748Z,11.90
2023-03-08T22:02:58.820Z,11.70
2023-03-08T22:05:29.354Z,11.70
2023-03-08T22:07:58.581Z,11.80
2023-03-08T22:10:27.570Z,11.70
2023-03-08T22:12:56.709Z,11.80
2023-03-08T22:15:25.831Z,11.60
2023-03-08T22:17:55.226Z,11.70
2023-03-08T22:20:42.570Z,11.50
2023-03-08T22:23:13.042Z,11.50
2023-03-08T22:26:00.645Z,11.60
2023-03-08T22:28:29.634Z,11.40
2023-03-08T22:30:58.666Z,11.30
2023-03-08T22:33:27.789Z,11.40
2023-03-08T22:36:14.061Z,11.30
2023-03-08T22:38:44.738Z,11.30
2023-03-08T22:41:16.227Z,11.40
2023-03-08T22:43:45.709Z,11.60
2023-03-08T22:46:16.387Z,11.50
2023-03-08T22:48:47.001Z,11.40
2023-03-08T22:51:17.818Z,11.50
2023-03-08T22:53:48.420Z,11.50
2023-03-08T22:56:21.608Z,11.40
2023-03-08T22:59:09.206Z,11.60
2023-03-08T23:04:24.471Z,11.40
2023-03-08T23:06:53.960Z,11.50
2023-03-08T23:09:24.958Z,11.30
2023-03-08T23:11:54.022Z,11.30
2023-03-08T23:14:41.952Z,11.30
2023-03-08T23:17:11.875Z,11.50
2023-03-08T23:20:16.790Z,11.40
2023-03-08T23:22:45.687Z,11.50
2023-03-08T23:25:16.340Z,11.60
2023-03-08T23:27:45.799Z,11.50
2023-03-08T23:30:33.416Z,11.50
2023-03-08T23:33:02.416Z,11.60
2023-03-08T23:35:31.341Z,11.50
2023-03-08T23:38:00.414Z,11.60
2023-03-08T23:40:30.979Z,11.40
2023-03-08T23:43:00.121Z,11.40
2023-03-08T23:45:46.362Z,11.40
2023-03-08T23:48:15.237Z,11.30
2023-03-08T23:50:44.141Z,11.40
2023-03-08T23:53:13.169Z,11.50
2023-03-08T23:55:44.171Z,11.40
2023-03-08T23:58:31.635Z,11.40
